createdAt,value
2019-02-26T00:00:36.317Z,1047.94
2019-02-26T00:01:36.306Z,1047.96
2019-02-26T00:02:36.298Z,1048.04
2019-02-26T00:03:36.278Z,1047.99
2019-02-26T00:04:36.887Z,1048.06
2019-02-26T00:05:36.248Z,1048.04
2019-02-26T00:06:36.236Z,1047.98
2019-02-26T00:07:36.222Z,1047.99
2019-02-26T00:08:36.208Z,1048.05
2019-02-26T00:09:36.195Z,1048.09
2019-02-26T00:10:38.524Z,1048.08
2019-02-26T00:11:38.349Z,1048.09
2019-02-26T00:12:36.154Z,1048.11
2019-02-26T00:13:36.552Z,1048.11
2019-02-26T00:14:36.129Z,1048.19
2019-02-26T00:15:38.038Z,1048.22
2019-02-26T00:16:39.660Z,1048.23
2019-02-26T00:17:38.652Z,1048.21
2019-02-26T00:18:36.072Z,1048.21
2019-02-26T00:19:36.059Z,1048.21
2019-02-26T00:20:37.076Z,1048.18
2019-02-26T00:21:36.033Z,1048.18
2019-02-26T00:22:36.718Z,1048.17
2019-02-26T00:23:36.005Z,1048.16
2019-02-26T00:24:37.674Z,1048.14
2019-02-26T00:25:35.977Z,1048.07
2019-02-26T00:26:36.230Z,1048.07
2019-02-26T00:27:35.950Z,1048.03
2019-02-26T00:28:36.429Z,1047.95
2019-02-26T00:29:35.922Z,1047.91
2019-02-26T00:30:37.857Z,1047.94
2019-02-26T00:31:35.898Z,1047.89
2019-02-26T00:32:36.619Z,1047.91
2019-02-26T00:33:35.868Z,1047.93
2019-02-26T00:34:37.163Z,1047.95
2019-02-26T00:35:35.840Z,1047.91
2019-02-26T00:36:36.325Z,1047.91
2019-02-26T00:37:35.811Z,1047.93
2019-02-26T00:38:37.518Z,1047.91
2019-02-26T00:39:35.784Z,1047.88
2019-02-26T00:40:36.952Z,1047.85
2019-02-26T00:41:35.869Z,1047.86
2019-02-26T00:42:36.029Z,1047.79
2019-02-26T00:43:36.872Z,1047.8
2019-02-26T00:44:37.290Z,1047.85
2019-02-26T00:45:36.869Z,1047.83
2019-02-26T00:46:36.964Z,1047.86
2019-02-26T00:47:36.274Z,1047.85
2019-02-26T00:48:36.536Z,1047.87
2019-02-26T00:49:35.647Z,1047.86
2019-02-26T00:50:37.280Z,1047.82
2019-02-26T00:51:35.616Z,1047.85
2019-02-26T00:52:37.410Z,1047.87
2019-02-26T00:53:35.589Z,1047.91
2019-02-26T00:54:36.559Z,1047.95
2019-02-26T00:55:37.433Z,1047.98
2019-02-26T00:56:36.423Z,1048
2019-02-26T00:57:36.627Z,1047.99
2019-02-26T00:58:38.845Z,1047.97
2019-02-26T00:59:36.540Z,1047.96
2019-02-26T01:00:35.584Z,1047.99
2019-02-26T01:01:35.477Z,1047.99
2019-02-26T01:02:35.464Z,1048.04
2019-02-26T01:03:35.449Z,1048.07
2019-02-26T01:04:35.435Z,1048.02
2019-02-26T01:05:36.244Z,1048.02
2019-02-26T01:06:35.408Z,1048.04
2019-02-26T01:07:35.393Z,1048.03
2019-02-26T01:08:36.257Z,1048.08
2019-02-26T01:09:35.369Z,1048.07
2019-02-26T01:10:37.350Z,1048.12
2019-02-26T01:11:35.337Z,1048.1
2019-02-26T01:12:37.470Z,1048.13
2019-02-26T01:13:35.309Z,1048.09
2019-02-26T01:14:35.297Z,1048.14
2019-02-26T01:15:35.282Z,1048.21
2019-02-26T01:16:36.954Z,1048.24
2019-02-26T01:17:35.729Z,1048.31
2019-02-26T01:18:35.239Z,1048.34
2019-02-26T01:19:36.772Z,1048.37
2019-02-26T01:20:35.210Z,1048.37
2019-02-26T01:21:35.832Z,1048.35
2019-02-26T01:22:35.759Z,1048.37
2019-02-26T01:23:35.168Z,1048.39
2019-02-26T01:24:35.156Z,1048.32
2019-02-26T01:25:38.187Z,1048.31
2019-02-26T01:26:35.127Z,1048.29
2019-02-26T01:27:35.112Z,1048.33
2019-02-26T01:28:35.098Z,1048.31
2019-02-26T01:29:35.084Z,1048.3
2019-02-26T01:30:36.179Z,1048.24
2019-02-26T01:31:35.056Z,1048.25
2019-02-26T01:32:35.042Z,1048.27
2019-02-26T01:33:35.028Z,1048.31
2019-02-26T01:34:35.014Z,1048.33
2019-02-26T01:35:35.566Z,1048.35
2019-02-26T01:36:34.985Z,1048.34
2019-02-26T01:37:36.551Z,1048.27
2019-02-26T01:38:37.382Z,1048.19
2019-02-26T01:39:35.611Z,1048.14
2019-02-26T01:40:34.928Z,1048.18
2019-02-26T01:41:34.914Z,1048.25
2019-02-26T01:42:34.900Z,1048.24
2019-02-26T01:43:34.887Z,1048.26
2019-02-26T01:44:35.549Z,1048.3
2019-02-26T01:45:34.858Z,1048.24
2019-02-26T01:46:36.501Z,1048.25
2019-02-26T01:47:34.830Z,1048.24
2019-02-26T01:48:36.553Z,1048.24
2019-02-26T01:49:34.799Z,1048.32
2019-02-26T01:50:35.627Z,1048.36
2019-02-26T01:51:34.771Z,1048.38
2019-02-26T01:52:34.757Z,1048.38
2019-02-26T01:53:34.743Z,1048.4
2019-02-26T01:54:35.538Z,1048.35
2019-02-26T01:55:34.718Z,1048.36
2019-02-26T01:56:36.456Z,1048.37
2019-02-26T01:57:34.686Z,1048.32
2019-02-26T01:58:34.671Z,1048.3
2019-02-26T01:59:34.698Z,1048.29
2019-02-26T02:00:34.643Z,1048.25
2019-02-26T02:01:34.628Z,1048.23
2019-02-26T02:02:34.613Z,1048.14
2019-02-26T02:03:34.599Z,1048.14
2019-02-26T02:04:36.560Z,1048.16
2019-02-26T02:05:34.572Z,1048.15
2019-02-26T02:06:35.236Z,1048.19
2019-02-26T02:07:34.541Z,1048.19
2019-02-26T02:08:34.528Z,1048.19
2019-02-26T02:09:34.512Z,1048.19
2019-02-26T02:10:34.498Z,1048.14
2019-02-26T02:11:35.811Z,1048.16
2019-02-26T02:12:36.836Z,1048.2
2019-02-26T02:13:35.770Z,1048.19
2019-02-26T02:14:34.441Z,1048.18
2019-02-26T02:15:35.647Z,1048.17
2019-02-26T02:16:34.410Z,1048.14
2019-02-26T02:17:35.526Z,1048.16
2019-02-26T02:18:34.381Z,1048.14
2019-02-26T02:19:34.366Z,1048.14
2019-02-26T02:20:34.352Z,1048.13
2019-02-26T02:21:35.609Z,1048.16
2019-02-26T02:22:35.169Z,1048.13
2019-02-26T02:23:34.309Z,1048.13
2019-02-26T02:24:38.932Z,1048.14
2019-02-26T02:25:36.070Z,1048.1
2019-02-26T02:26:34.990Z,1048.08
2019-02-26T02:27:34.250Z,1048.14
2019-02-26T02:28:35.573Z,1048.15
2019-02-26T02:29:34.220Z,1048.14
2019-02-26T02:30:35.390Z,1048.05
2019-02-26T02:31:34.724Z,1048.08
2019-02-26T02:32:34.518Z,1048.13
2019-02-26T02:33:35.376Z,1048.14
2019-02-26T02:34:36.547Z,1048.11
2019-02-26T02:35:34.156Z,1048.17
2019-02-26T02:36:34.120Z,1048.15
2019-02-26T02:37:34.106Z,1048.12
2019-02-26T02:38:36.446Z,1048.11
2019-02-26T02:39:34.075Z,1048.07
2019-02-26T02:40:34.061Z,1048.05
2019-02-26T02:41:34.046Z,1047.98
2019-02-26T02:42:34.894Z,1047.9
2019-02-26T02:43:34.017Z,1047.87
2019-02-26T02:44:34.002Z,1047.88
2019-02-26T02:45:33.988Z,1047.9
2019-02-26T02:46:34.686Z,1047.95
2019-02-26T02:47:36.321Z,1048.02
2019-02-26T02:48:33.944Z,1047.99
2019-02-26T02:49:37.180Z,1047.94
2019-02-26T02:50:33.915Z,1047.96
2019-02-26T02:51:36.393Z,1047.95
2019-02-26T02:52:35.251Z,1047.99
2019-02-26T02:53:33.870Z,1048.05
2019-02-26T02:54:33.859Z,1048.05
2019-02-26T02:55:33.841Z,1048.06
2019-02-26T02:56:35.981Z,1048.15
2019-02-26T02:57:34.405Z,1048.16
2019-02-26T02:58:33.796Z,1048.2
2019-02-26T02:59:34.851Z,1048.26
2019-02-26T03:00:34.445Z,1048.26
2019-02-26T03:01:33.753Z,1048.29
2019-02-26T03:02:37.428Z,1048.32
2019-02-26T03:03:33.723Z,1048.37
2019-02-26T03:04:34.652Z,1048.46
2019-02-26T03:05:35.015Z,1048.43
2019-02-26T03:06:35.800Z,1048.43
2019-02-26T03:07:33.666Z,1048.5
2019-02-26T03:08:33.650Z,1048.43
2019-02-26T03:09:35.305Z,1048.48
2019-02-26T03:10:34.642Z,1048.42
2019-02-26T03:11:36.611Z,1048.4
2019-02-26T03:12:33.592Z,1048.34
2019-02-26T03:13:33.576Z,1048.34
2019-02-26T03:14:35.775Z,1048.38
2019-02-26T03:15:35.761Z,1048.3
2019-02-26T03:16:33.533Z,1048.26
2019-02-26T03:17:33.517Z,1048.25
2019-02-26T03:18:33.502Z,1048.19
2019-02-26T03:19:35.511Z,1048.14
2019-02-26T03:20:36.979Z,1048.17
2019-02-26T03:21:33.458Z,1048.17
2019-02-26T03:22:35.973Z,1048.21
2019-02-26T03:23:34.277Z,1048.11
2019-02-26T03:24:35.815Z,1048.11
2019-02-26T03:25:33.399Z,1048.08
2019-02-26T03:26:33.386Z,1048.13
2019-02-26T03:27:34.175Z,1048.11
2019-02-26T03:28:35.509Z,1048.07
2019-02-26T03:29:33.340Z,1047.96
2019-02-26T03:30:38.508Z,1048
2019-02-26T03:31:34.737Z,1048
2019-02-26T03:32:36.394Z,1047.92
2019-02-26T03:33:33.282Z,1047.85
2019-02-26T03:34:33.269Z,1047.81
2019-02-26T03:35:33.253Z,1047.75
2019-02-26T03:36:34.110Z,1047.78
2019-02-26T03:37:34.471Z,1047.81
2019-02-26T03:38:33.209Z,1047.84
2019-02-26T03:39:33.196Z,1047.8
2019-02-26T03:40:35.983Z,1047.77
2019-02-26T03:41:33.165Z,1047.82
2019-02-26T03:42:33.788Z,1047.79
2019-02-26T03:43:34.090Z,1047.78
2019-02-26T03:44:33.123Z,1047.74
2019-02-26T03:45:33.107Z,1047.65
2019-02-26T03:46:33.092Z,1047.57
2019-02-26T03:47:33.078Z,1047.53
2019-02-26T03:48:33.064Z,1047.53
2019-02-26T03:49:33.049Z,1047.52
2019-02-26T03:50:33.033Z,1047.63
2019-02-26T03:51:33.019Z,1047.69
2019-02-26T03:52:33.004Z,1047.61
2019-02-26T03:53:34.186Z,1047.57
2019-02-26T03:54:32.978Z,1047.6
2019-02-26T03:55:34.138Z,1047.54
2019-02-26T03:56:32.947Z,1047.53
2019-02-26T03:57:32.933Z,1047.48
2019-02-26T03:58:32.917Z,1047.48
2019-02-26T03:59:32.903Z,1047.35
2019-02-26T04:00:34.656Z,1047.38
2019-02-26T04:01:32.875Z,1047.37
2019-02-26T04:02:32.859Z,1047.41
2019-02-26T04:03:35.144Z,1047.43
2019-02-26T04:04:33.712Z,1047.44
2019-02-26T04:05:32.820Z,1047.49
2019-02-26T04:06:34.134Z,1047.51
2019-02-26T04:07:33.320Z,1047.55
2019-02-26T04:08:32.773Z,1047.6
2019-02-26T04:09:32.760Z,1047.65
2019-02-26T04:10:32.745Z,1047.64
2019-02-26T04:11:32.731Z,1047.54
2019-02-26T04:12:35.783Z,1047.5
2019-02-26T04:13:32.705Z,1047.34
2019-02-26T04:14:32.692Z,1047.33
2019-02-26T04:15:33.347Z,1047.37
2019-02-26T04:16:35.146Z,1047.4
2019-02-26T04:17:33.555Z,1047.36
2019-02-26T04:18:34.701Z,1047.38
2019-02-26T04:19:32.619Z,1047.38
2019-02-26T04:20:32.605Z,1047.32
2019-02-26T04:21:32.591Z,1047.28
2019-02-26T04:22:32.578Z,1047.27
2019-02-26T04:23:33.159Z,1047.22
2019-02-26T04:24:35.425Z,1047.13
2019-02-26T04:25:33.873Z,1047.03
2019-02-26T04:26:35.063Z,1047.01
2019-02-26T04:27:33.481Z,1046.95
2019-02-26T04:28:33.437Z,1046.98
2019-02-26T04:29:35.228Z,1047.02
2019-02-26T04:30:34.721Z,1047
2019-02-26T04:31:32.442Z,1047
2019-02-26T04:32:32.437Z,1046.93
2019-02-26T04:33:33.303Z,1046.92
2019-02-26T04:34:32.403Z,1046.93
2019-02-26T04:35:32.386Z,1046.95
2019-02-26T04:36:34.250Z,1046.97
2019-02-26T04:37:33.345Z,1047
2019-02-26T04:38:32.344Z,1047.04
2019-02-26T04:39:33.969Z,1047.09
2019-02-26T04:40:32.917Z,1047.07
2019-02-26T04:41:32.687Z,1047.02
2019-02-26T04:42:33.074Z,1047
2019-02-26T04:43:34.024Z,1046.94
2019-02-26T04:44:34.181Z,1046.92
2019-02-26T04:45:32.247Z,1046.9
2019-02-26T04:46:34.224Z,1046.82
2019-02-26T04:47:33.685Z,1046.76
2019-02-26T04:48:34.249Z,1046.75
2019-02-26T04:49:33.872Z,1046.69
2019-02-26T04:50:35.054Z,1046.7
2019-02-26T04:51:34.233Z,1046.72
2019-02-26T04:52:34.681Z,1046.79
2019-02-26T04:53:34.388Z,1046.79
2019-02-26T04:54:33.584Z,1046.8
2019-02-26T04:55:35.057Z,1046.84
2019-02-26T04:56:35.775Z,1046.85
2019-02-26T04:57:32.080Z,1046.84
2019-02-26T04:58:34.169Z,1046.84
2019-02-26T04:59:32.854Z,1046.83
2019-02-26T05:00:33.594Z,1046.76
2019-02-26T05:01:33.024Z,1046.76
2019-02-26T05:02:32.011Z,1046.73
2019-02-26T05:03:31.996Z,1046.71
2019-02-26T05:04:33.785Z,1046.6
2019-02-26T05:05:34.835Z,1046.59
2019-02-26T05:06:31.956Z,1046.61
2019-02-26T05:07:32.864Z,1046.66
2019-02-26T05:08:32.918Z,1046.63
2019-02-26T05:09:33.158Z,1046.68
2019-02-26T05:10:34.180Z,1046.66
2019-02-26T05:11:35.014Z,1046.68
2019-02-26T05:12:34.797Z,1046.69
2019-02-26T05:13:32.561Z,1046.64
2019-02-26T05:14:31.869Z,1046.6
2019-02-26T05:15:33.208Z,1046.56
2019-02-26T05:16:34.648Z,1046.58
2019-02-26T05:17:33.199Z,1046.64
2019-02-26T05:18:34.393Z,1046.63
2019-02-26T05:19:31.780Z,1046.58
2019-02-26T05:20:33.864Z,1046.6
2019-02-26T05:21:33.157Z,1046.57
2019-02-26T05:22:33.344Z,1046.54
2019-02-26T05:23:33.608Z,1046.52
2019-02-26T05:24:31.708Z,1046.6
2019-02-26T05:25:34.302Z,1046.63
2019-02-26T05:26:31.688Z,1046.57
2019-02-26T05:27:31.667Z,1046.48
2019-02-26T05:28:33.377Z,1046.52
2019-02-26T05:29:31.639Z,1046.46
2019-02-26T05:30:31.628Z,1046.52
2019-02-26T05:31:33.004Z,1046.51
2019-02-26T05:32:33.334Z,1046.54
2019-02-26T05:33:32.822Z,1046.56
2019-02-26T05:34:31.571Z,1046.52
2019-02-26T05:35:31.560Z,1046.48
2019-02-26T05:36:33.686Z,1046.41
2019-02-26T05:37:32.643Z,1046.35
2019-02-26T05:38:32.915Z,1046.3
2019-02-26T05:39:31.502Z,1046.31
2019-02-26T05:40:31.488Z,1046.33
2019-02-26T05:41:31.475Z,1046.34
2019-02-26T05:42:31.463Z,1046.34
2019-02-26T05:43:33.878Z,1046.28
2019-02-26T05:44:31.437Z,1046.26
2019-02-26T05:45:32.956Z,1046.24
2019-02-26T05:46:31.408Z,1046.23
2019-02-26T05:47:31.394Z,1046.24
2019-02-26T05:48:31.380Z,1046.29
2019-02-26T05:49:33.865Z,1046.39
2019-02-26T05:50:32.778Z,1046.39
2019-02-26T05:51:32.629Z,1046.47
2019-02-26T05:52:32.974Z,1046.46
2019-02-26T05:53:31.315Z,1046.5
2019-02-26T05:54:31.300Z,1046.51
2019-02-26T05:55:31.286Z,1046.57
2019-02-26T05:56:31.284Z,1046.55
2019-02-26T05:57:32.461Z,1046.55
2019-02-26T05:58:33.366Z,1046.5
2019-02-26T05:59:31.246Z,1046.56
2019-02-26T06:00:33.221Z,1046.66
2019-02-26T06:01:31.205Z,1046.66
2019-02-26T06:02:31.192Z,1046.7
2019-02-26T06:03:31.179Z,1046.75
2019-02-26T06:04:31.907Z,1046.76
2019-02-26T06:05:31.151Z,1046.73
2019-02-26T06:06:31.247Z,1046.76
2019-02-26T06:07:33.528Z,1046.8
2019-02-26T06:08:33.594Z,1046.81
2019-02-26T06:09:33.741Z,1046.88
2019-02-26T06:10:32.563Z,1046.9
2019-02-26T06:11:33.421Z,1046.96
2019-02-26T06:12:32.599Z,1046.96
2019-02-26T06:13:31.500Z,1046.96
2019-02-26T06:14:33.092Z,1046.9
2019-02-26T06:15:31.899Z,1046.87
2019-02-26T06:16:31.511Z,1046.89
2019-02-26T06:17:30.987Z,1046.87
2019-02-26T06:18:30.975Z,1046.85
2019-02-26T06:19:33.200Z,1046.8
2019-02-26T06:20:32.182Z,1046.79
2019-02-26T06:21:30.943Z,1046.7
2019-02-26T06:22:31.771Z,1046.7
2019-02-26T06:23:33.467Z,1046.71
2019-02-26T06:24:33.158Z,1046.65
2019-02-26T06:25:30.881Z,1046.7
2019-02-26T06:26:33.307Z,1046.71
2019-02-26T06:27:30.852Z,1046.68
2019-02-26T06:28:35.369Z,1046.7
2019-02-26T06:29:32.560Z,1046.71
2019-02-26T06:30:30.811Z,1046.68
2019-02-26T06:31:30.798Z,1046.61
2019-02-26T06:32:32.752Z,1046.58
2019-02-26T06:33:32.418Z,1046.6
2019-02-26T06:34:30.757Z,1046.56
2019-02-26T06:35:31.460Z,1046.53
2019-02-26T06:36:30.731Z,1046.52
2019-02-26T06:37:31.354Z,1046.52
2019-02-26T06:38:32.684Z,1046.51
2019-02-26T06:39:32.058Z,1046.49
2019-02-26T06:40:32.935Z,1046.43
2019-02-26T06:41:30.663Z,1046.39
2019-02-26T06:42:31.605Z,1046.33
2019-02-26T06:43:30.961Z,1046.22
2019-02-26T06:44:30.625Z,1046.17
2019-02-26T06:45:30.610Z,1046.05
2019-02-26T06:46:31.817Z,1045.86
2019-02-26T06:47:31.471Z,1045.79
2019-02-26T06:48:32.291Z,1045.66
2019-02-26T06:49:30.557Z,1045.63
2019-02-26T06:50:31.745Z,1045.61
2019-02-26T06:51:30.795Z,1045.58
2019-02-26T06:52:33.282Z,1045.59
2019-02-26T06:53:30.506Z,1045.61
2019-02-26T06:54:31.742Z,1045.59
2019-02-26T06:55:30.481Z,1045.6
2019-02-26T06:56:34.413Z,1045.58
2019-02-26T06:57:30.456Z,1045.6
2019-02-26T06:58:30.442Z,1045.62
2019-02-26T06:59:32.325Z,1045.59
2019-02-26T07:00:30.417Z,1045.57
2019-02-26T07:01:32.390Z,1045.54
2019-02-26T07:02:30.392Z,1045.47
2019-02-26T07:03:30.383Z,1045.49
2019-02-26T07:04:30.366Z,1045.45
2019-02-26T07:05:30.354Z,1045.39
2019-02-26T07:06:32.521Z,1045.38
2019-02-26T07:07:30.329Z,1045.37
2019-02-26T07:08:30.942Z,1045.29
2019-02-26T07:09:32.238Z,1045.31
2019-02-26T07:10:31.259Z,1045.29
2019-02-26T07:11:31.216Z,1045.26
2019-02-26T07:12:30.268Z,1045.21
2019-02-26T07:13:30.256Z,1045.19
2019-02-26T07:14:32.061Z,1045.16
2019-02-26T07:15:30.230Z,1045.12
2019-02-26T07:16:30.218Z,1045.1
2019-02-26T07:17:33.662Z,1045.09
2019-02-26T07:18:30.194Z,1045.05
2019-02-26T07:19:31.186Z,1044.94
2019-02-26T07:20:33.972Z,1044.88
2019-02-26T07:21:30.158Z,1044.82
2019-02-26T07:22:30.149Z,1044.71
2019-02-26T07:23:32.584Z,1044.68
2019-02-26T07:24:30.123Z,1044.64
2019-02-26T07:25:31.705Z,1044.56
2019-02-26T07:26:30.099Z,1044.55
2019-02-26T07:27:31.831Z,1044.55
2019-02-26T07:28:30.075Z,1044.61
2019-02-26T07:29:31.283Z,1044.58
2019-02-26T07:30:30.053Z,1044.55
2019-02-26T07:31:30.997Z,1044.52
2019-02-26T07:32:30.030Z,1044.49
2019-02-26T07:33:32.191Z,1044.45
2019-02-26T07:34:30.009Z,1044.41
2019-02-26T07:35:30.580Z,1044.34
2019-02-26T07:36:29.985Z,1044.28
2019-02-26T07:37:31.371Z,1044.26
2019-02-26T07:38:29.963Z,1044.21
2019-02-26T07:39:29.952Z,1044.08
2019-02-26T07:40:30.507Z,1044.07
2019-02-26T07:41:30.396Z,1043.97
2019-02-26T07:42:32.671Z,1044
2019-02-26T07:43:29.910Z,1044.02
2019-02-26T07:44:29.899Z,1044.02
2019-02-26T07:45:32.086Z,1043.99
2019-02-26T07:46:29.876Z,1044.01
2019-02-26T07:47:31.368Z,1043.94
2019-02-26T07:48:31.665Z,1043.66
2019-02-26T07:49:29.844Z,1043.46
2019-02-26T07:50:32.465Z,1043.23
2019-02-26T07:51:31.544Z,1043.18
2019-02-26T07:52:31.090Z,1043.19
2019-02-26T07:53:29.802Z,1043.11
2019-02-26T07:54:29.793Z,1042.97
2019-02-26T07:55:30.700Z,1042.86
2019-02-26T07:56:32.099Z,1042.87
2019-02-26T07:57:29.764Z,1042.95
2019-02-26T07:58:31.348Z,1042.97
2019-02-26T07:59:32.320Z,1043.11
2019-02-26T08:00:30.497Z,1043.16
2019-02-26T08:01:29.726Z,1043.18
2019-02-26T08:02:30.567Z,1043.25
2019-02-26T08:03:29.709Z,1043.32
2019-02-26T08:04:31.679Z,1043.36
2019-02-26T08:05:29.689Z,1043.46
2019-02-26T08:06:31.446Z,1043.53
2019-02-26T08:07:30.788Z,1043.58
2019-02-26T08:08:29.661Z,1043.57
2019-02-26T08:09:29.650Z,1043.57
2019-02-26T08:10:29.641Z,1043.51
2019-02-26T08:11:29.633Z,1043.42
2019-02-26T08:12:30.896Z,1043.4
2019-02-26T08:13:31.552Z,1043.37
2019-02-26T08:14:29.604Z,1043.31
2019-02-26T08:15:30.280Z,1043.3
2019-02-26T08:16:30.084Z,1043.27
2019-02-26T08:17:29.577Z,1043.28
2019-02-26T08:18:29.568Z,1043.25
2019-02-26T08:19:29.939Z,1043.2
2019-02-26T08:20:30.334Z,1043.21
2019-02-26T08:21:29.771Z,1043.16
2019-02-26T08:22:31.730Z,1043.17
2019-02-26T08:23:29.523Z,1043.24
2019-02-26T08:24:29.512Z,1043.24
2019-02-26T08:25:29.503Z,1043.27
2019-02-26T08:26:29.495Z,1043.3
2019-02-26T08:27:30.842Z,1043.31
2019-02-26T08:28:29.476Z,1043.3
2019-02-26T08:29:31.189Z,1043.35
2019-02-26T08:30:29.457Z,1043.35
2019-02-26T08:31:29.448Z,1043.43
2019-02-26T08:32:30.522Z,1043.5
2019-02-26T08:33:29.430Z,1043.52
2019-02-26T08:34:29.425Z,1043.55
2019-02-26T08:35:29.413Z,1043.55
2019-02-26T08:36:29.405Z,1043.53
2019-02-26T08:37:29.393Z,1043.52
2019-02-26T08:38:30.215Z,1043.46
2019-02-26T08:39:29.376Z,1043.47
2019-02-26T08:40:29.369Z,1043.47
2019-02-26T08:41:29.360Z,1043.45
2019-02-26T08:42:29.350Z,1043.48
2019-02-26T08:43:29.338Z,1043.51
2019-02-26T08:44:29.330Z,1043.52
2019-02-26T08:45:30.873Z,1043.55
2019-02-26T08:46:29.311Z,1043.58
2019-02-26T08:47:29.302Z,1043.57
2019-02-26T08:48:29.294Z,1043.55
2019-02-26T08:49:29.283Z,1043.51
2019-02-26T08:50:32.815Z,1043.51
2019-02-26T08:51:29.266Z,1043.5
2019-02-26T08:52:29.464Z,1043.45
2019-02-26T08:53:31.435Z,1043.42
2019-02-26T08:54:31.159Z,1043.38
2019-02-26T08:55:29.229Z,1043.33
2019-02-26T08:56:31.479Z,1043.22
2019-02-26T08:57:29.213Z,1043.13
2019-02-26T08:58:29.202Z,1043.05
2019-02-26T08:59:29.194Z,1042.96
2019-02-26T09:00:29.184Z,1042.87
2019-02-26T09:01:29.177Z,1042.8
2019-02-26T09:02:29.167Z,1042.68
2019-02-26T09:03:29.159Z,1042.58
2019-02-26T09:04:29.153Z,1042.54
2019-02-26T09:05:31.626Z,1042.47
2019-02-26T09:06:29.132Z,1042.41
2019-02-26T09:07:29.125Z,1042.31
2019-02-26T09:08:30.589Z,1042.26
2019-02-26T09:09:30.129Z,1042.25
2019-02-26T09:10:29.101Z,1042.33
2019-02-26T09:11:31.194Z,1042.37
2019-02-26T09:12:29.084Z,1042.34
2019-02-26T09:13:30.765Z,1042.39
2019-02-26T09:14:32.004Z,1042.44
2019-02-26T09:15:31.228Z,1042.49
2019-02-26T09:16:30.326Z,1042.5
2019-02-26T09:17:30.346Z,1042.53
2019-02-26T09:18:31.123Z,1042.51
2019-02-26T09:19:30.225Z,1042.49
2019-02-26T09:20:29.021Z,1042.45
2019-02-26T09:21:29.269Z,1042.34
2019-02-26T09:22:29.004Z,1042.32
2019-02-26T09:23:30.518Z,1042.32
2019-02-26T09:24:28.992Z,1042.32
2019-02-26T09:25:31.325Z,1042.35
2019-02-26T09:26:28.973Z,1042.33
2019-02-26T09:27:29.459Z,1042.3
2019-02-26T09:28:29.431Z,1042.32
2019-02-26T09:29:28.950Z,1042.31
2019-02-26T09:30:31.502Z,1042.34
2019-02-26T09:31:28.937Z,1042.35
2019-02-26T09:32:28.929Z,1042.31
2019-02-26T09:33:32.555Z,1042.28
2019-02-26T09:34:31.549Z,1042.3
2019-02-26T09:35:31.114Z,1042.28
2019-02-26T09:37:28.891Z,1042.19
2019-02-26T09:38:28.884Z,1042.18
2019-02-26T09:39:29.407Z,1042.17
2019-02-26T09:40:30.015Z,1042.15
2019-02-26T09:41:28.861Z,1042.18
2019-02-26T09:42:30.113Z,1042.14
2019-02-26T09:43:28.849Z,1042.11
2019-02-26T09:44:30.946Z,1042.1
2019-02-26T09:45:30.052Z,1042.08
2019-02-26T09:46:28.825Z,1042
2019-02-26T09:47:30.975Z,1042.01
2019-02-26T09:48:28.811Z,1042
2019-02-26T09:49:30.799Z,1042.03
2019-02-26T09:50:29.048Z,1042.01
2019-02-26T09:51:30.564Z,1042.04
2019-02-26T09:52:30.239Z,1042.08
2019-02-26T09:53:28.775Z,1042.1
2019-02-26T09:54:28.768Z,1042.16
2019-02-26T09:55:28.763Z,1042.17
2019-02-26T09:56:28.757Z,1042.21
2019-02-26T09:57:28.749Z,1042.25
2019-02-26T09:58:28.741Z,1042.31
2019-02-26T09:59:29.401Z,1042.4
2019-02-26T10:00:29.564Z,1042.49
2019-02-26T10:01:30.560Z,1042.52
2019-02-26T10:02:28.893Z,1042.48
2019-02-26T10:03:29.625Z,1042.47
2019-02-26T10:04:29.002Z,1042.41
2019-02-26T10:05:28.693Z,1042.4
2019-02-26T10:06:28.685Z,1042.38
2019-02-26T10:07:30.684Z,1042.37
2019-02-26T10:08:30.430Z,1042.37
2019-02-26T10:09:28.666Z,1042.39
2019-02-26T10:10:31.006Z,1042.39
2019-02-26T10:11:28.652Z,1042.35
2019-02-26T10:12:29.807Z,1042.34
2019-02-26T10:13:28.639Z,1042.37
2019-02-26T10:14:29.230Z,1042.34
2019-02-26T10:15:28.652Z,1042.33
2019-02-26T10:16:30.504Z,1042.29
2019-02-26T10:17:28.613Z,1042.26
2019-02-26T10:18:30.336Z,1042.19
2019-02-26T10:19:28.599Z,1042.18
2019-02-26T10:20:31.602Z,1042.14
2019-02-26T10:21:28.586Z,1042.06
2019-02-26T10:22:29.455Z,1041.99
2019-02-26T10:23:32.707Z,1041.87
2019-02-26T10:24:30.105Z,1041.77
2019-02-26T10:25:31.757Z,1041.62
2019-02-26T10:26:30.732Z,1041.5
2019-02-26T10:27:31.796Z,1041.43
2019-02-26T10:28:30.038Z,1041.3
2019-02-26T10:29:28.537Z,1041.34
2019-02-26T10:30:31.167Z,1041.37
2019-02-26T10:31:28.525Z,1041.51
2019-02-26T10:32:28.519Z,1041.63
2019-02-26T10:33:28.513Z,1041.68
2019-02-26T10:34:30.330Z,1041.76
2019-02-26T10:35:33.072Z,1041.81
2019-02-26T10:36:30.917Z,1041.85
2019-02-26T10:37:31.162Z,1041.85
2019-02-26T10:38:31.283Z,1041.9
2019-02-26T10:39:28.486Z,1041.88
2019-02-26T10:40:34.988Z,1041.84
2019-02-26T10:41:28.468Z,1041.86
2019-02-26T10:42:28.462Z,1041.86
2019-02-26T10:43:28.456Z,1041.79
2019-02-26T10:44:28.452Z,1041.74
2019-02-26T10:45:28.446Z,1041.73
2019-02-26T10:46:29.353Z,1041.77
2019-02-26T10:47:29.764Z,1041.79
2019-02-26T10:48:28.456Z,1041.77
2019-02-26T10:49:28.746Z,1041.77
2019-02-26T10:50:31.466Z,1041.79
2019-02-26T10:51:28.411Z,1041.72
2019-02-26T10:52:28.748Z,1041.62
2019-02-26T10:53:28.406Z,1041.62
2019-02-26T10:54:30.944Z,1041.6
2019-02-26T10:55:33.805Z,1041.59
2019-02-26T10:56:30.543Z,1041.54
2019-02-26T10:57:28.797Z,1041.45
2019-02-26T10:58:28.373Z,1041.36
2019-02-26T10:59:28.366Z,1041.34
2019-02-26T11:00:31.062Z,1041.31
2019-02-26T11:01:30.753Z,1041.27
2019-02-26T11:02:28.350Z,1041.19
2019-02-26T11:03:29.778Z,1041.14
2019-02-26T11:04:34.614Z,1041.07
2019-02-26T11:05:28.341Z,1041.07
2019-02-26T11:06:30.333Z,1040.98
2019-02-26T11:07:29.162Z,1040.96
2019-02-26T11:08:29.521Z,1040.94
2019-02-26T11:09:29.824Z,1040.94
2019-02-26T11:10:28.308Z,1041.01
2019-02-26T11:11:30.337Z,1041.07
2019-02-26T11:12:30.684Z,1041.11
2019-02-26T11:13:28.291Z,1041.09
2019-02-26T11:14:28.285Z,1041.05
2019-02-26T11:15:30.916Z,1040.96
2019-02-26T11:16:30.452Z,1040.87
2019-02-26T11:17:28.840Z,1040.87
2019-02-26T11:18:28.270Z,1040.87
2019-02-26T11:19:33.180Z,1040.89
2019-02-26T11:20:30.682Z,1040.87
2019-02-26T11:21:28.249Z,1040.81
2019-02-26T11:22:28.244Z,1040.83
2019-02-26T11:23:31.060Z,1040.73
2019-02-26T11:24:30.684Z,1040.65
2019-02-26T11:25:28.244Z,1040.64
2019-02-26T11:26:29.989Z,1040.6
2019-02-26T11:27:28.219Z,1040.61
2019-02-26T11:28:32.603Z,1040.62
2019-02-26T11:29:30.382Z,1040.65
2019-02-26T11:30:30.125Z,1040.6
2019-02-26T11:31:28.198Z,1040.54
2019-02-26T11:32:30.006Z,1040.54
2019-02-26T11:33:28.191Z,1040.52
2019-02-26T11:34:30.432Z,1040.5
2019-02-26T11:35:28.181Z,1040.52
2019-02-26T11:36:30.399Z,1040.46
2019-02-26T11:37:29.478Z,1040.44
2019-02-26T11:38:28.166Z,1040.39
2019-02-26T11:39:28.161Z,1040.4
2019-02-26T11:40:30.562Z,1040.4
2019-02-26T11:41:29.194Z,1040.32
2019-02-26T11:42:28.722Z,1040.35
2019-02-26T11:43:28.872Z,1040.38
2019-02-26T11:44:28.138Z,1040.47
2019-02-26T11:45:28.131Z,1040.51
2019-02-26T11:46:29.819Z,1040.65
2019-02-26T11:47:28.124Z,1040.7
2019-02-26T11:48:30.349Z,1040.75
2019-02-26T11:49:28.114Z,1040.68
2019-02-26T11:50:28.461Z,1040.65
2019-02-26T11:51:36.779Z,1040.62
2019-02-26T11:52:28.100Z,1040.68
2019-02-26T11:53:29.788Z,1040.69
2019-02-26T11:54:30.897Z,1040.71
2019-02-26T11:55:29.835Z,1040.67
2019-02-26T11:56:28.080Z,1040.71
2019-02-26T11:57:30.187Z,1040.69
2019-02-26T11:58:28.071Z,1040.68
2019-02-26T11:59:28.065Z,1040.64
2019-02-26T12:00:31.252Z,1040.57
2019-02-26T12:01:29.292Z,1040.55
2019-02-26T12:02:31.866Z,1040.54
2019-02-26T12:03:30.976Z,1040.6
2019-02-26T12:04:28.057Z,1040.58
2019-02-26T12:05:32.921Z,1040.67
2019-02-26T12:06:28.035Z,1040.74
2019-02-26T12:07:29.749Z,1040.75
2019-02-26T12:08:28.024Z,1040.72
2019-02-26T12:09:29.910Z,1040.77